This is the latest recevied weather packets stored in our database for station/object N5CNB. If no packets are shown the sender has not sent any weather packets the latest 10 day(s).
| Time | Temp. | Humidity | Pressure | Rain* | Wind** | Luminosity | Snow |
|---|---|---|---|---|---|---|---|
| 1777931121 | 26.11° C | 67% | 1011.4 hPa | 0 mm | - | - | - |
| 1777930209 | 26.11° C | 65% | 1011.5 hPa | 0 mm | - | - | - |
| 1777929312 | 26.11° C | 65% | 1011.8 hPa | 0 mm | - | - | - |
| 1777928416 | 26.67° C | 63% | 1012 hPa | 0 mm | - | - | - |
| 1777927522 | 27.78° C | 61% | 1012 hPa | 0 mm | - | - | - |
| 1777926610 | 27.22° C | 62% | 1012.4 hPa | 0 mm | - | - | - |
| 1777925707 | 27.22° C | 60% | 1012.4 hPa | 0 mm | - | - | - |
| 1777924823 | 26.67° C | 61% | 1012.7 hPa | 0 mm | - | - | - |
| 1777923922 | 26.67° C | 61% | 1013.2 hPa | 0 mm | - | - | - |
| 1777923019 | 26.67° C | 62% | 1013.2 hPa | 0 mm | - | - | - |
| 1777922119 | 27.22° C | 60% | 1013.3 hPa | 0 mm | - | - | - |
| 1777921216 | 26.67° C | 64% | 1013.6 hPa | 0 mm | - | - | - |
| 1777920316 | 26.11° C | 63% | 1013.7 hPa | 0 mm | - | - | - |
| 1777919435 | 25.56° C | 63% | 1014 hPa | 0 mm | - | - | - |
| 1777918526 | 25.56° C | 63% | 1014.3 hPa | 0 mm | - | - | - |
| 1777917609 | 25° C | 64% | 1014.6 hPa | 0 mm | - | - | - |
| 1777916716 | 25.56° C | 63% | 1014.5 hPa | 0 mm | - | - | - |
| 1777915818 | 25° C | 65% | 1014.8 hPa | 0 mm | - | - | - |
| 1777914918 | 25° C | 65% | 1015.1 hPa | 0 mm | - | - | - |
| 1777914022 | 23.89° C | 68% | 1015.3 hPa | 0 mm | - | - | - |
| 1777913110 | 23.89° C | 68% | 1015.3 hPa | 0 mm | - | - | - |
| 1777912225 | 23.89° C | 69% | 1015.6 hPa | 0 mm | - | - | - |
| 1777911319 | 23.89° C | 67% | 1015.7 hPa | 0 mm | - | - | - |
| 1777910424 | 23.33° C | 68% | 1015.8 hPa | 0 mm | - | - | - |
| 1777909527 | 23.33° C | 68% | 1015.9 hPa | 0 mm | - | - | - |
* Rain latest hour (hover to see other rain measurements)
** Current wind speed in m/s (hover to see current wind gust speed)